EWG1WB UKBB-URWW
Flight info
| Callsign | EWG1WB |
|---|---|
| Flight time | N/A |
| Altitude | 37000 |
| Route | GOTAP P142 KHR M996 GUKOL DCT MOR/K0704F270 A916 GIMKI W323 NOPSA NOPSA2G |
| Aircraft | A320/M-SDE3FGHIRWY/LB1 |
Departure
| Time | 2026-05-07 15:33 |
|---|---|
| Airport | Boryspil International Airport (UKBB) |
Arrival
| Time | N/A |
|---|---|
| Airport | Volgograd International Airport (URWW) |
| Time | Latitude | Longitude | Altitude | Speed | Heading |
|---|---|---|---|---|---|
| 2026-05-07 14:59 | 50.35260 | 30.89890 | 422 ft | 0 kts | 273° |
| 2026-05-07 15:25 | 50.35259 | 30.89910 | 414 ft | 2 kts | 273° |
| 2026-05-07 15:25 | 50.35258 | 30.89935 | 426 ft | 2 kts | 273° |
| 2026-05-07 15:26 | 50.35257 | 30.89960 | 420 ft | 2 kts | 273° |
| 2026-05-07 15:26 | 50.35256 | 30.89985 | 421 ft | 2 kts | 273° |
| 2026-05-07 15:26 | 50.35255 | 30.90011 | 421 ft | 2 kts | 310° |
| 2026-05-07 15:26 | 50.35250 | 30.90020 | 418 ft | 0 kts | 6° |
| 2026-05-07 15:29 | 50.35251 | 30.90020 | 418 ft | 0 kts | 6° |
| 2026-05-07 15:29 | 50.35255 | 30.90021 | 421 ft | 0 kts | 6° |
| 2026-05-07 15:30 | 50.35270 | 30.90021 | 420 ft | 5 kts | 359° |
| 2026-05-07 15:30 | 50.35333 | 30.90020 | 427 ft | 11 kts | 1° |
| 2026-05-07 15:30 | 50.35406 | 30.90031 | 424 ft | 10 kts | 6° |
| 2026-05-07 15:30 | 50.35453 | 30.90088 | 425 ft | 8 kts | 66° |
| 2026-05-07 15:31 | 50.35458 | 30.90170 | 430 ft | 7 kts | 94° |
| 2026-05-07 15:31 | 50.35449 | 30.90238 | 426 ft | 6 kts | 113° |
| 2026-05-07 15:31 | 50.35410 | 30.90296 | 425 ft | 11 kts | 149° |
| 2026-05-07 15:31 | 50.35327 | 30.90362 | 427 ft | 16 kts | 153° |
| 2026-05-07 15:32 | 50.35224 | 30.90444 | 429 ft | 18 kts | 152° |
| 2026-05-07 15:32 | 50.35156 | 30.90533 | 426 ft | 10 kts | 93° |
| 2026-05-07 15:32 | 50.35116 | 30.90576 | 424 ft | 7 kts | 173° |
| 2026-05-07 15:32 | 50.35059 | 30.90571 | 431 ft | 13 kts | 182° |
| 2026-05-07 15:33 | 50.34743 | 30.90549 | 434 ft | 80 kts | 183° |
| 2026-05-07 15:33 | 50.33986 | 30.90485 | 429 ft | 138 kts | 183° |
| 2026-05-07 15:33 | 50.32892 | 30.90292 | 595 ft | 168 kts | 190° |
| 2026-05-07 15:33 | 50.31736 | 30.90057 | 1287 ft | 169 kts | 188° |
| 2026-05-07 15:34 | 50.30572 | 30.89890 | 1975 ft | 174 kts | 186° |
| 2026-05-07 15:34 | 50.29269 | 30.89723 | 2265 ft | 202 kts | 186° |
| 2026-05-07 15:34 | 50.27742 | 30.89548 | 2535 ft | 235 kts | 185° |
| 2026-05-07 15:34 | 50.26057 | 30.89447 | 3240 ft | 247 kts | 182° |
| 2026-05-07 15:35 | 50.24335 | 30.89420 | 4234 ft | 247 kts | 182° |
| 2026-05-07 15:35 | 50.22606 | 30.89464 | 5211 ft | 251 kts | 176° |
| 2026-05-07 15:35 | 50.20962 | 30.90519 | 5953 ft | 268 kts | 143° |
| 2026-05-07 15:35 | 50.19842 | 30.92905 | 6734 ft | 283 kts | 114° |
| 2026-05-07 15:36 | 50.19576 | 30.95984 | 7567 ft | 293 kts | 89° |
| 2026-05-07 15:36 | 50.19681 | 30.99166 | 8477 ft | 294 kts | 91° |
| 2026-05-07 15:36 | 50.19751 | 31.02388 | 9310 ft | 299 kts | 90° |
| 2026-05-07 15:36 | 50.19797 | 31.05637 | 10204 ft | 299 kts | 91° |
| 2026-05-07 15:37 | 50.19825 | 31.08921 | 10840 ft | 311 kts | 91° |
| 2026-05-07 15:37 | 50.19859 | 31.12429 | 11061 ft | 335 kts | 91° |
| 2026-05-07 15:37 | 50.19906 | 31.16170 | 11339 ft | 355 kts | 90° |
| 2026-05-07 15:37 | 50.19973 | 31.20031 | 12179 ft | 352 kts | 89° |
| 2026-05-07 15:38 | 50.20054 | 31.23839 | 13066 ft | 354 kts | 90° |
| 2026-05-07 15:38 | 50.20129 | 31.27677 | 13705 ft | 360 kts | 89° |
| 2026-05-07 15:38 | 50.20196 | 31.31586 | 14396 ft | 362 kts | 89° |
| 2026-05-07 15:38 | 50.20257 | 31.35542 | 15022 ft | 366 kts | 90° |
| 2026-05-07 15:39 | 50.20315 | 31.39525 | 15736 ft | 367 kts | 90° |
| 2026-05-07 15:39 | 50.20373 | 31.43519 | 16388 ft | 370 kts | 89° |
| 2026-05-07 15:39 | 50.20430 | 31.47568 | 16998 ft | 375 kts | 90° |
| 2026-05-07 15:39 | 50.20481 | 31.51639 | 17665 ft | 377 kts | 89° |
| 2026-05-07 15:40 | 50.20533 | 31.55748 | 18300 ft | 380 kts | 90° |
| 2026-05-07 15:40 | 50.20588 | 31.59903 | 18808 ft | 385 kts | 89° |
| 2026-05-07 15:40 | 50.20642 | 31.64104 | 19402 ft | 387 kts | 89° |
| 2026-05-07 15:40 | 50.20696 | 31.68321 | 19925 ft | 391 kts | 90° |
| 2026-05-07 15:41 | 50.20749 | 31.72580 | 20450 ft | 394 kts | 89° |
| 2026-05-07 15:41 | 50.20799 | 31.76878 | 21015 ft | 397 kts | 89° |
| 2026-05-07 15:41 | 50.20845 | 31.81196 | 21534 ft | 401 kts | 89° |
| 2026-05-07 15:41 | 50.20891 | 31.85583 | 22068 ft | 404 kts | 89° |
| 2026-05-07 15:42 | 50.20937 | 31.89965 | 22648 ft | 407 kts | 89° |
| 2026-05-07 15:42 | 50.20981 | 31.94397 | 23206 ft | 409 kts | 89° |
| 2026-05-07 15:42 | 50.21025 | 31.98840 | 23729 ft | 411 kts | 89° |
| 2026-05-07 15:42 | 50.21070 | 32.03263 | 24161 ft | 413 kts | 88° |
| 2026-05-07 15:43 | 50.21112 | 32.07775 | 24585 ft | 416 kts | 88° |
| 2026-05-07 15:43 | 50.21151 | 32.12295 | 25047 ft | 417 kts | 88° |
| 2026-05-07 15:43 | 50.21186 | 32.16839 | 25461 ft | 420 kts | 88° |
| 2026-05-07 15:43 | 50.21219 | 32.21419 | 25879 ft | 422 kts | 88° |
| 2026-05-07 15:44 | 50.21250 | 32.25994 | 26317 ft | 423 kts | 88° |
| 2026-05-07 15:44 | 50.21278 | 32.30586 | 26716 ft | 424 kts | 88° |
| 2026-05-07 15:44 | 50.21308 | 32.35208 | 27124 ft | 426 kts | 88° |
| 2026-05-07 15:44 | 50.21340 | 32.39837 | 27515 ft | 428 kts | 87° |
| 2026-05-07 15:45 | 50.21370 | 32.44498 | 27901 ft | 429 kts | 88° |
| 2026-05-07 15:45 | 50.21396 | 32.49162 | 28314 ft | 430 kts | 88° |
| 2026-05-07 15:45 | 50.21420 | 32.53856 | 28695 ft | 432 kts | 88° |
| 2026-05-07 15:45 | 50.21440 | 32.58554 | 29057 ft | 434 kts | 88° |
| 2026-05-07 15:46 | 50.21479 | 32.68020 | 29743 ft | 438 kts | 88° |
| 2026-05-07 15:46 | 50.21495 | 32.72786 | 30071 ft | 440 kts | 88° |
| 2026-05-07 15:46 | 50.21507 | 32.77578 | 30354 ft | 442 kts | 88° |
| 2026-05-07 15:47 | 50.21519 | 32.82370 | 30623 ft | 443 kts | 88° |
| 2026-05-07 15:47 | 50.21530 | 32.87133 | 30876 ft | 445 kts | 88° |
| 2026-05-07 15:47 | 50.21540 | 32.92043 | 31140 ft | 447 kts | 88° |
| 2026-05-07 15:47 | 50.21550 | 32.96839 | 31383 ft | 448 kts | 88° |
| 2026-05-07 15:48 | 50.21556 | 33.01700 | 31714 ft | 448 kts | 88° |
| 2026-05-07 15:48 | 50.21558 | 33.06559 | 32079 ft | 446 kts | 88° |
| 2026-05-07 15:48 | 50.21557 | 33.11392 | 32431 ft | 445 kts | 88° |
| 2026-05-07 15:48 | 50.21554 | 33.16223 | 32780 ft | 444 kts | 88° |
| 2026-05-07 15:49 | 50.21551 | 33.21030 | 33129 ft | 443 kts | 88° |
| 2026-05-07 15:49 | 50.21546 | 33.25840 | 33480 ft | 442 kts | 88° |
| 2026-05-07 15:49 | 50.21536 | 33.30640 | 33832 ft | 441 kts | 88° |
| 2026-05-07 15:49 | 50.21521 | 33.35436 | 34155 ft | 440 kts | 88° |
| 2026-05-07 15:50 | 50.21506 | 33.40205 | 34432 ft | 440 kts | 88° |
| 2026-05-07 15:50 | 50.21492 | 33.44926 | 34689 ft | 440 kts | 88° |
| 2026-05-07 15:50 | 50.21478 | 33.49691 | 34936 ft | 440 kts | 88° |
| 2026-05-07 15:50 | 50.21462 | 33.54473 | 35176 ft | 440 kts | 88° |
| 2026-05-07 15:51 | 50.21445 | 33.59241 | 35405 ft | 440 kts | 88° |
| 2026-05-07 15:51 | 50.21427 | 33.64034 | 35636 ft | 440 kts | 88° |
| 2026-05-07 15:51 | 50.21406 | 33.68801 | 35862 ft | 440 kts | 89° |
| 2026-05-07 15:51 | 50.21378 | 33.73582 | 36081 ft | 440 kts | 89° |
| 2026-05-07 15:52 | 50.21348 | 33.78359 | 36291 ft | 440 kts | 88° |
| 2026-05-07 15:52 | 50.21316 | 33.83142 | 36481 ft | 440 kts | 89° |
| 2026-05-07 15:52 | 50.21251 | 33.87918 | 36681 ft | 441 kts | 93° |
| 2026-05-07 15:52 | 50.20836 | 33.92681 | 36865 ft | 443 kts | 98° |
| 2026-05-07 15:53 | 50.20318 | 33.97360 | 37009 ft | 443 kts | 98° |
| 2026-05-07 15:53 | 50.19448 | 34.05258 | 37030 ft | 440 kts | 98° |
| 2026-05-07 15:54 | 50.18247 | 34.16197 | 37030 ft | 439 kts | 98° |
| 2026-05-07 15:54 | 50.17203 | 34.25576 | 37023 ft | 439 kts | 98° |
| 2026-05-07 15:55 | 50.16323 | 34.33383 | 37023 ft | 439 kts | 98° |
| 2026-05-07 15:55 | 50.15252 | 34.42823 | 37031 ft | 439 kts | 98° |
| 2026-05-07 15:56 | 50.14191 | 34.52140 | 37025 ft | 439 kts | 98° |
| 2026-05-07 15:56 | 50.13114 | 34.61507 | 37031 ft | 439 kts | 98° |
| 2026-05-07 15:57 | 50.12035 | 34.70876 | 37031 ft | 439 kts | 98° |
| 2026-05-07 15:57 | 50.10976 | 34.80254 | 37032 ft | 439 kts | 98° |
| 2026-05-07 15:58 | 50.09916 | 34.89624 | 37034 ft | 439 kts | 98° |
| 2026-05-07 15:58 | 50.08834 | 34.98995 | 37029 ft | 439 kts | 98° |
| 2026-05-07 15:59 | 50.07746 | 35.08298 | 37026 ft | 439 kts | 98° |
| 2026-05-07 15:59 | 50.06651 | 35.17654 | 37026 ft | 439 kts | 99° |
| 2026-05-07 16:00 | 50.05551 | 35.27021 | 37030 ft | 439 kts | 99° |
| 2026-05-07 16:00 | 50.04433 | 35.36373 | 37032 ft | 440 kts | 99° |
| 2026-05-07 16:01 | 50.03300 | 35.45728 | 37045 ft | 440 kts | 99° |
| 2026-05-07 16:01 | 50.02163 | 35.55072 | 37037 ft | 440 kts | 99° |
| 2026-05-07 16:02 | 50.01015 | 35.64418 | 37041 ft | 440 kts | 100° |
| 2026-05-07 16:02 | 49.99874 | 35.73704 | 37039 ft | 440 kts | 100° |
| 2026-05-07 16:03 | 49.98724 | 35.83030 | 37039 ft | 440 kts | 99° |
| 2026-05-07 16:03 | 49.97562 | 35.92362 | 37041 ft | 439 kts | 99° |
| 2026-05-07 16:04 | 49.96388 | 36.01670 | 37056 ft | 439 kts | 100° |
| 2026-05-07 16:04 | 49.95206 | 36.10981 | 37050 ft | 439 kts | 100° |
| 2026-05-07 16:05 | 49.94016 | 36.20262 | 37045 ft | 438 kts | 101° |
| 2026-05-07 16:05 | 49.92319 | 36.29312 | 37046 ft | 439 kts | 115° |
| 2026-05-07 16:06 | 49.89054 | 36.37239 | 37040 ft | 440 kts | 126° |
| 2026-05-07 16:06 | 49.85441 | 36.44966 | 37041 ft | 440 kts | 125° |
| 2026-05-07 16:07 | 49.81871 | 36.52596 | 37036 ft | 440 kts | 126° |
| 2026-05-07 16:07 | 49.78268 | 36.60267 | 37038 ft | 440 kts | 125° |
| 2026-05-07 16:08 | 49.74649 | 36.67907 | 37035 ft | 440 kts | 125° |
| 2026-05-07 16:08 | 49.71027 | 36.75543 | 37041 ft | 440 kts | 126° |
| 2026-05-07 16:09 | 49.67403 | 36.83170 | 37040 ft | 441 kts | 126° |
| 2026-05-07 16:09 | 49.63797 | 36.90828 | 37036 ft | 441 kts | 125° |
| 2026-05-07 16:10 | 49.60205 | 36.98492 | 37036 ft | 441 kts | 125° |
| 2026-05-07 16:10 | 49.56600 | 37.06141 | 37043 ft | 441 kts | 126° |
| 2026-05-07 16:11 | 49.52984 | 37.13767 | 37051 ft | 440 kts | 125° |
| 2026-05-07 16:11 | 49.49392 | 37.21318 | 37051 ft | 440 kts | 126° |
| 2026-05-07 16:12 | 49.45752 | 37.28950 | 37048 ft | 440 kts | 126° |
| 2026-05-07 16:12 | 49.42135 | 37.36520 | 37045 ft | 439 kts | 126° |
| 2026-05-07 16:13 | 49.38535 | 37.44032 | 37044 ft | 439 kts | 125° |
| 2026-05-07 16:13 | 49.34904 | 37.51569 | 37043 ft | 439 kts | 126° |
| 2026-05-07 16:14 | 49.31277 | 37.59096 | 37043 ft | 439 kts | 126° |
| 2026-05-07 16:14 | 49.27649 | 37.66616 | 37037 ft | 439 kts | 126° |
| 2026-05-07 16:15 | 49.24007 | 37.74124 | 37037 ft | 439 kts | 126° |
| 2026-05-07 16:15 | 49.20360 | 37.81613 | 37035 ft | 439 kts | 125° |
| 2026-05-07 16:16 | 49.16708 | 37.89100 | 37037 ft | 439 kts | 126° |
| 2026-05-07 16:16 | 49.13053 | 37.96556 | 37035 ft | 439 kts | 125° |
| 2026-05-07 16:17 | 49.09393 | 38.04003 | 37039 ft | 439 kts | 126° |
| 2026-05-07 16:17 | 49.05741 | 38.11411 | 37038 ft | 439 kts | 126° |
| 2026-05-07 16:18 | 49.02066 | 38.18825 | 37039 ft | 439 kts | 126° |
| 2026-05-07 16:18 | 48.98379 | 38.26232 | 37037 ft | 439 kts | 126° |
| 2026-05-07 16:19 | 48.94694 | 38.33623 | 37044 ft | 438 kts | 126° |
| 2026-05-07 16:19 | 48.90998 | 38.41015 | 37035 ft | 439 kts | 126° |
| 2026-05-07 16:20 | 48.87302 | 38.48395 | 37039 ft | 438 kts | 126° |
| 2026-05-07 16:20 | 48.83607 | 38.55768 | 37031 ft | 438 kts | 126° |
| 2026-05-07 16:21 | 48.79935 | 38.63080 | 37036 ft | 438 kts | 126° |
| 2026-05-07 16:21 | 48.76223 | 38.70419 | 37033 ft | 439 kts | 126° |
| 2026-05-07 16:22 | 48.72504 | 38.77760 | 37034 ft | 439 kts | 126° |
| 2026-05-07 16:22 | 48.68783 | 38.85082 | 37034 ft | 439 kts | 126° |
| 2026-05-07 16:23 | 48.65047 | 38.92404 | 37034 ft | 439 kts | 127° |
| 2026-05-07 16:23 | 48.61306 | 38.99705 | 37039 ft | 439 kts | 127° |
| 2026-05-07 16:24 | 48.57569 | 39.07008 | 37035 ft | 439 kts | 127° |
| 2026-05-07 16:24 | 48.53831 | 39.14295 | 37036 ft | 439 kts | 127° |
| 2026-05-07 16:25 | 48.50073 | 39.21583 | 37038 ft | 439 kts | 127° |
| 2026-05-07 16:25 | 48.46312 | 39.28849 | 37044 ft | 439 kts | 127° |
| 2026-05-07 16:26 | 48.42548 | 39.36112 | 37040 ft | 440 kts | 126° |
| 2026-05-07 16:26 | 48.39336 | 39.43902 | 37037 ft | 439 kts | 119° |
| 2026-05-07 16:27 | 48.36248 | 39.51822 | 37039 ft | 439 kts | 119° |
| 2026-05-07 16:27 | 48.33174 | 39.59685 | 37048 ft | 439 kts | 119° |
| 2026-05-07 16:28 | 48.30075 | 39.67587 | 37051 ft | 439 kts | 120° |
| 2026-05-07 16:28 | 48.26976 | 39.75471 | 37050 ft | 439 kts | 120° |
| 2026-05-07 16:29 | 48.23862 | 39.83345 | 37049 ft | 439 kts | 120° |
| 2026-05-07 16:29 | 48.21084 | 39.91455 | 37057 ft | 436 kts | 107° |
| 2026-05-07 16:30 | 48.20135 | 40.00363 | 37037 ft | 433 kts | 87° |
| 2026-05-07 16:30 | 48.20802 | 40.09318 | 37033 ft | 432 kts | 81° |
| 2026-05-07 16:31 | 48.21571 | 40.18265 | 37038 ft | 433 kts | 82° |
| 2026-05-07 16:31 | 48.22318 | 40.27167 | 37034 ft | 433 kts | 82° |
| 2026-05-07 16:32 | 48.23063 | 40.36115 | 37032 ft | 433 kts | 82° |
| 2026-05-07 16:32 | 48.23810 | 40.45074 | 37026 ft | 433 kts | 82° |
| 2026-05-07 16:33 | 48.24551 | 40.54038 | 37034 ft | 433 kts | 82° |
| 2026-05-07 16:33 | 48.25289 | 40.63030 | 37026 ft | 434 kts | 82° |
| 2026-05-07 16:34 | 48.26020 | 40.72029 | 37027 ft | 434 kts | 82° |
| 2026-05-07 16:34 | 48.26734 | 40.81034 | 37028 ft | 435 kts | 82° |
| 2026-05-07 16:35 | 48.27446 | 40.90049 | 37028 ft | 435 kts | 82° |
| 2026-05-07 16:35 | 48.28152 | 40.99063 | 37030 ft | 435 kts | 82° |
| 2026-05-07 16:36 | 48.28853 | 41.08082 | 37028 ft | 435 kts | 82° |
| 2026-05-07 16:36 | 48.29537 | 41.17041 | 37028 ft | 435 kts | 82° |
| 2026-05-07 16:37 | 48.30223 | 41.26073 | 37034 ft | 435 kts | 82° |
| 2026-05-07 16:37 | 48.30908 | 41.35087 | 37028 ft | 435 kts | 82° |
| 2026-05-07 16:38 | 48.31571 | 41.44120 | 37028 ft | 435 kts | 83° |
| 2026-05-07 16:38 | 48.32233 | 41.53156 | 37027 ft | 435 kts | 83° |
| 2026-05-07 16:39 | 48.32886 | 41.62192 | 37026 ft | 435 kts | 83° |
| 2026-05-07 16:39 | 48.33537 | 41.71228 | 37022 ft | 435 kts | 82° |
| 2026-05-07 16:40 | 48.33873 | 41.80238 | 37013 ft | 436 kts | 94° |
| 2026-05-07 16:40 | 48.32658 | 41.89169 | 37011 ft | 437 kts | 103° |
| 2026-05-07 16:41 | 48.31190 | 41.98055 | 37009 ft | 438 kts | 103° |
| 2026-05-07 16:41 | 48.29736 | 42.06930 | 37009 ft | 438 kts | 102° |
| 2026-05-07 16:42 | 48.28270 | 42.15808 | 36717 ft | 441 kts | 103° |
| 2026-05-07 16:42 | 48.27776 | 42.18775 | 36220 ft | 441 kts | 103° |
| 2026-05-07 16:42 | 48.27030 | 42.23226 | 35739 ft | 437 kts | 103° |
| 2026-05-07 16:42 | 48.26292 | 42.27616 | 35213 ft | 433 kts | 102° |
| 2026-05-07 16:43 | 48.25555 | 42.31980 | 34702 ft | 430 kts | 102° |
| 2026-05-07 16:43 | 48.24821 | 42.36316 | 34167 ft | 428 kts | 102° |
| 2026-05-07 16:43 | 48.24153 | 42.40663 | 33596 ft | 423 kts | 96° |
| 2026-05-07 16:43 | 48.23954 | 42.45007 | 33099 ft | 416 kts | 86° |
| 2026-05-07 16:44 | 48.24271 | 42.49304 | 32596 ft | 409 kts | 76° |
| 2026-05-07 16:44 | 48.25074 | 42.53342 | 32108 ft | 402 kts | 65° |
| 2026-05-07 16:44 | 48.26197 | 42.57100 | 31643 ft | 397 kts | 63° |
| 2026-05-07 16:44 | 48.27340 | 42.60857 | 31173 ft | 394 kts | 63° |
| 2026-05-07 16:45 | 48.28481 | 42.64620 | 30715 ft | 390 kts | 63° |
| 2026-05-07 16:45 | 48.29600 | 42.68316 | 30277 ft | 387 kts | 63° |
| 2026-05-07 16:45 | 48.30700 | 42.71945 | 29780 ft | 384 kts | 63° |
| 2026-05-07 16:45 | 48.31796 | 42.75565 | 29360 ft | 379 kts | 63° |
| 2026-05-07 16:46 | 48.32889 | 42.79191 | 28938 ft | 374 kts | 63° |
| 2026-05-07 16:46 | 48.33939 | 42.82689 | 28540 ft | 370 kts | 63° |
| 2026-05-07 16:46 | 48.34992 | 42.86197 | 28137 ft | 365 kts | 63° |
| 2026-05-07 16:46 | 48.36029 | 42.89655 | 27735 ft | 361 kts | 63° |
| 2026-05-07 16:47 | 48.37054 | 42.93079 | 27338 ft | 357 kts | 63° |
| 2026-05-07 16:47 | 48.38065 | 42.96470 | 26935 ft | 353 kts | 63° |
| 2026-05-07 16:47 | 48.39066 | 42.99829 | 26531 ft | 350 kts | 63° |
| 2026-05-07 16:47 | 48.40060 | 43.03159 | 26122 ft | 346 kts | 64° |
| 2026-05-07 16:48 | 48.40840 | 43.06586 | 25707 ft | 346 kts | 74° |
| 2026-05-07 16:48 | 48.41241 | 43.10161 | 25281 ft | 346 kts | 79° |
| 2026-05-07 16:48 | 48.41575 | 43.13739 | 24867 ft | 344 kts | 79° |
| 2026-05-07 16:48 | 48.41912 | 43.17297 | 24417 ft | 343 kts | 79° |
| 2026-05-07 16:49 | 48.42244 | 43.20795 | 23989 ft | 341 kts | 79° |
| 2026-05-07 16:49 | 48.42582 | 43.24329 | 23541 ft | 340 kts | 78° |
| 2026-05-07 16:49 | 48.42917 | 43.27853 | 23050 ft | 339 kts | 79° |
| 2026-05-07 16:49 | 48.43247 | 43.31348 | 22621 ft | 336 kts | 79° |
| 2026-05-07 16:50 | 48.43570 | 43.34817 | 22186 ft | 333 kts | 79° |
| 2026-05-07 16:50 | 48.43890 | 43.38262 | 21782 ft | 331 kts | 79° |
| 2026-05-07 16:50 | 48.44205 | 43.41680 | 21368 ft | 329 kts | 79° |
| 2026-05-07 16:50 | 48.44520 | 43.45082 | 20971 ft | 327 kts | 79° |
| 2026-05-07 16:51 | 48.44834 | 43.48463 | 20566 ft | 325 kts | 79° |
| 2026-05-07 16:51 | 48.45145 | 43.51815 | 20173 ft | 323 kts | 79° |
| 2026-05-07 16:51 | 48.45455 | 43.55160 | 19776 ft | 322 kts | 79° |
| 2026-05-07 16:51 | 48.45761 | 43.58492 | 19382 ft | 321 kts | 79° |
| 2026-05-07 16:52 | 48.46065 | 43.61814 | 18986 ft | 320 kts | 79° |
| 2026-05-07 16:52 | 48.46367 | 43.65146 | 18599 ft | 319 kts | 79° |
| 2026-05-07 16:52 | 48.46665 | 43.68449 | 18206 ft | 318 kts | 79° |
| 2026-05-07 16:52 | 48.46963 | 43.71750 | 17787 ft | 317 kts | 79° |